sensor_id;sensor_type;location;lat;lon;timestamp;temperature;humidity
20654;DHT22;21083;50.898;4.902;2022-09-12T00:01:09;18.20;99.90
20654;DHT22;21083;50.898;4.902;2022-09-12T00:03:37;18.20;99.90
20654;DHT22;21083;50.898;4.902;2022-09-12T00:06:10;18.20;99.90
20654;DHT22;21083;50.898;4.902;2022-09-12T00:08:38;18.10;99.90
20654;DHT22;21083;50.898;4.902;2022-09-12T00:11:08;18.10;99.90
20654;DHT22;21083;50.898;4.902;2022-09-12T00:13:36;18.10;99.90
20654;DHT22;21083;50.898;4.902;2022-09-12T00:16:03;17.90;99.90
20654;DHT22;21083;50.898;4.902;2022-09-12T00:18:31;17.80;99.90
20654;DHT22;21083;50.898;4.902;2022-09-12T00:21:01;17.70;99.90
20654;DHT22;21083;50.898;4.902;2022-09-12T00:23:29;17.70;99.90
20654;DHT22;21083;50.898;4.902;2022-09-12T00:25:56;17.50;99.90
20654;DHT22;21083;50.898;4.902;2022-09-12T00:28:25;17.50;99.90
20654;DHT22;21083;50.898;4.902;2022-09-12T00:30:52;17.50;99.90
20654;DHT22;21083;50.898;4.902;2022-09-12T00:33:19;17.50;99.90
20654;DHT22;21083;50.898;4.902;2022-09-12T00:35:47;17.50;99.90
20654;DHT22;21083;50.898;4.902;2022-09-12T00:38:17;17.50;99.90
20654;DHT22;21083;50.898;4.902;2022-09-12T00:40:44;17.50;99.90
20654;DHT22;21083;50.898;4.902;2022-09-12T00:43:12;17.40;99.90
20654;DHT22;21083;50.898;4.902;2022-09-12T00:45:41;17.40;99.90
20654;DHT22;21083;50.898;4.902;2022-09-12T00:48:17;17.30;99.90
20654;DHT22;21083;50.898;4.902;2022-09-12T00:50:47;17.40;99.90
20654;DHT22;21083;50.898;4.902;2022-09-12T00:53:15;17.40;99.90
20654;DHT22;21083;50.898;4.902;2022-09-12T00:55:46;17.30;99.90
20654;DHT22;21083;50.898;4.902;2022-09-12T00:58:19;17.30;99.90
20654;DHT22;21083;50.898;4.902;2022-09-12T01:00:49;17.30;99.90
20654;DHT22;21083;50.898;4.902;2022-09-12T01:03:19;17.30;99.90
20654;DHT22;21083;50.898;4.902;2022-09-12T01:05:52;17.20;99.90
20654;DHT22;21083;50.898;4.902;2022-09-12T01:08:24;17.20;99.90
20654;DHT22;21083;50.898;4.902;2022-09-12T01:10:51;17.20;99.90
20654;DHT22;21083;50.898;4.902;2022-09-12T01:13:18;17.20;99.90
20654;DHT22;21083;50.898;4.902;2022-09-12T01:15:45;17.10;99.90
20654;DHT22;21083;50.898;4.902;2022-09-12T01:18:20;17.10;99.90
20654;DHT22;21083;50.898;4.902;2022-09-12T01:21:00;17.10;99.90
20654;DHT22;21083;50.898;4.902;2022-09-12T01:24:02;17.00;99.90
20654;DHT22;21083;50.898;4.902;2022-09-12T01:30:02;16.90;99.90
20654;DHT22;21083;50.898;4.902;2022-09-12T01:32:37;16.90;99.90
20654;DHT22;21083;50.898;4.902;2022-09-12T01:35:14;16.80;99.90
20654;DHT22;21083;50.898;4.902;2022-09-12T01:37:52;16.80;99.90
20654;DHT22;21083;50.898;4.902;2022-09-12T01:40:22;16.70;99.90
20654;DHT22;21083;50.898;4.902;2022-09-12T01:42:55;16.80;99.90
20654;DHT22;21083;50.898;4.902;2022-09-12T01:45:29;16.80;99.90
20654;DHT22;21083;50.898;4.902;2022-09-12T01:48:03;16.80;99.90
20654;DHT22;21083;50.898;4.902;2022-09-12T01:50:36;16.80;99.90
20654;DHT22;21083;50.898;4.902;2022-09-12T01:53:08;16.80;99.90
20654;DHT22;21083;50.898;4.902;2022-09-12T01:55:42;16.70;99.90
20654;DHT22;21083;50.898;4.902;2022-09-12T01:58:14;16.80;99.90
20654;DHT22;21083;50.898;4.902;2022-09-12T02:00:49;16.70;99.90
20654;DHT22;21083;50.898;4.902;2022-09-12T02:03:21;16.60;99.90
20654;DHT22;21083;50.898;4.902;2022-09-12T02:05:52;16.50;99.90
20654;DHT22;21083;50.898;4.902;2022-09-12T02:08:26;16.50;99.90
20654;DHT22;21083;50.898;4.902;2022-09-12T02:10:55;16.40;99.90
20654;DHT22;21083;50.898;4.902;2022-09-12T02:13:26;16.40;99.90
20654;DHT22;21083;50.898;4.902;2022-09-12T02:15:57;16.40;99.90
20654;DHT22;21083;50.898;4.902;2022-09-12T02:18:28;16.40;99.90
20654;DHT22;21083;50.898;4.902;2022-09-12T02:20:59;16.30;99.90
20654;DHT22;21083;50.898;4.902;2022-09-12T02:23:30;16.30;99.90
20654;DHT22;21083;50.898;4.902;2022-09-12T02:26:00;16.30;99.90
20654;DHT22;21083;50.898;4.902;2022-09-12T02:28:30;16.30;99.90
20654;DHT22;21083;50.898;4.902;2022-09-12T02:31:02;16.30;99.90
20654;DHT22;21083;50.898;4.902;2022-09-12T02:33:43;16.20;99.90
20654;DHT22;21083;50.898;4.902;2022-09-12T02:36:16;16.20;99.90
20654;DHT22;21083;50.898;4.902;2022-09-12T02:38:47;16.20;99.90
20654;DHT22;21083;50.898;4.902;2022-09-12T02:41:18;16.20;99.90
20654;DHT22;21083;50.898;4.902;2022-09-12T02:43:46;16.10;99.90
20654;DHT22;21083;50.898;4.902;2022-09-12T02:46:16;16.10;99.90
20654;DHT22;21083;50.898;4.902;2022-09-12T02:48:46;16.00;99.90
20654;DHT22;21083;50.898;4.902;2022-09-12T02:51:12;16.10;99.90
20654;DHT22;21083;50.898;4.902;2022-09-12T02:53:41;16.10;99.90
20654;DHT22;21083;50.898;4.902;2022-09-12T02:56:12;15.90;99.90
20654;DHT22;21083;50.898;4.902;2022-09-12T02:58:42;15.90;99.90
20654;DHT22;21083;50.898;4.902;2022-09-12T03:01:16;15.80;99.90
20654;DHT22;21083;50.898;4.902;2022-09-12T03:04:05;15.90;99.90
20654;DHT22;21083;50.898;4.902;2022-09-12T03:06:42;15.90;99.90
20654;DHT22;21083;50.898;4.902;2022-09-12T03:09:17;15.90;99.90
20654;DHT22;21083;50.898;4.902;2022-09-12T03:17:49;15.90;99.90
20654;DHT22;21083;50.898;4.902;2022-09-12T03:20:27;15.80;99.90
20654;DHT22;21083;50.898;4.902;2022-09-12T03:23:01;15.80;99.90
20654;DHT22;21083;50.898;4.902;2022-09-12T03:25:33;15.80;99.90
20654;DHT22;21083;50.898;4.902;2022-09-12T03:28:04;15.80;99.90
20654;DHT22;21083;50.898;4.902;2022-09-12T03:30:37;15.80;99.90
20654;DHT22;21083;50.898;4.902;2022-09-12T03:33:04;15.80;99.90
20654;DHT22;21083;50.898;4.902;2022-09-12T03:35:32;15.80;99.90
20654;DHT22;21083;50.898;4.902;2022-09-12T03:37:59;15.80;99.90
20654;DHT22;21083;50.898;4.902;2022-09-12T03:40:26;15.80;99.90
20654;DHT22;21083;50.898;4.902;2022-09-12T03:42:53;15.80;99.90
20654;DHT22;21083;50.898;4.902;2022-09-12T03:45:20;15.80;99.90
20654;DHT22;21083;50.898;4.902;2022-09-12T03:47:46;15.80;99.90
20654;DHT22;21083;50.898;4.902;2022-09-12T03:50:13;15.80;99.90
20654;DHT22;21083;50.898;4.902;2022-09-12T03:52:42;15.80;99.90
20654;DHT22;21083;50.898;4.902;2022-09-12T03:55:09;15.80;99.90
20654;DHT22;21083;50.898;4.902;2022-09-12T03:57:36;15.70;99.90
20654;DHT22;21083;50.898;4.902;2022-09-12T04:00:04;15.70;99.90
20654;DHT22;21083;50.898;4.902;2022-09-12T04:02:31;15.70;99.90
20654;DHT22;21083;50.898;4.902;2022-09-12T04:04:58;15.70;99.90
20654;DHT22;21083;50.898;4.902;2022-09-12T04:07:25;15.70;99.90
20654;DHT22;21083;50.898;4.902;2022-09-12T04:09:53;15.70;99.90
20654;DHT22;21083;50.898;4.902;2022-09-12T04:12:21;15.70;99.90
20654;DHT22;21083;50.898;4.902;2022-09-12T04:14:48;15.80;99.90
20654;DHT22;21083;50.898;4.902;2022-09-12T04:17:15;15.80;99.90
20654;DHT22;21083;50.898;4.902;2022-09-12T04:19:42;15.90;99.90
20654;DHT22;21083;50.898;4.902;2022-09-12T04:22:09;15.90;99.90
20654;DHT22;21083;50.898;4.902;2022-09-12T04:24:35;15.90;99.90
20654;DHT22;21083;50.898;4.902;2022-09-12T04:27:04;15.80;99.90
20654;DHT22;21083;50.898;4.902;2022-09-12T04:29:31;15.90;99.90
20654;DHT22;21083;50.898;4.902;2022-09-12T04:31:57;15.90;99.90
20654;DHT22;21083;50.898;4.902;2022-09-12T04:34:25;15.90;99.90
20654;DHT22;21083;50.898;4.902;2022-09-12T04:36:51;15.80;99.90
20654;DHT22;21083;50.898;4.902;2022-09-12T04:39:18;15.80;99.90
20654;DHT22;21083;50.898;4.902;2022-09-12T04:41:45;15.80;99.90
20654;DHT22;21083;50.898;4.902;2022-09-12T04:44:14;15.90;99.90
20654;DHT22;21083;50.898;4.902;2022-09-12T04:46:42;15.90;99.90
20654;DHT22;21083;50.898;4.902;2022-09-12T04:49:10;15.80;99.90
20654;DHT22;21083;50.898;4.902;2022-09-12T04:51:39;15.80;99.90
20654;DHT22;21083;50.898;4.902;2022-09-12T04:54:07;15.90;99.90
20654;DHT22;21083;50.898;4.902;2022-09-12T04:56:37;15.90;99.90
20654;DHT22;21083;50.898;4.902;2022-09-12T04:59:04;15.80;99.90
20654;DHT22;21083;50.898;4.902;2022-09-12T05:01:33;15.90;99.90
20654;DHT22;21083;50.898;4.902;2022-09-12T05:04:00;15.80;99.90
20654;DHT22;21083;50.898;4.902;2022-09-12T05:06:30;15.80;99.90
20654;DHT22;21083;50.898;4.902;2022-09-12T05:08:58;15.80;99.90
20654;DHT22;21083;50.898;4.902;2022-09-12T05:11:26;15.80;99.90
20654;DHT22;21083;50.898;4.902;2022-09-12T05:13:54;15.80;99.90
20654;DHT22;21083;50.898;4.902;2022-09-12T05:16:22;15.80;99.90
20654;DHT22;21083;50.898;4.902;2022-09-12T05:18:51;15.80;99.90
20654;DHT22;21083;50.898;4.902;2022-09-12T05:21:19;15.80;99.90
20654;DHT22;21083;50.898;4.902;2022-09-12T05:23:50;15.80;99.90
20654;DHT22;21083;50.898;4.902;2022-09-12T05:26:18;15.80;99.90
20654;DHT22;21083;50.898;4.902;2022-09-12T05:28:46;15.80;99.90
20654;DHT22;21083;50.898;4.902;2022-09-12T05:31:15;15.80;99.90
20654;DHT22;21083;50.898;4.902;2022-09-12T05:33:43;15.80;99.90
20654;DHT22;21083;50.898;4.902;2022-09-12T05:36:14;15.80;99.90
20654;DHT22;21083;50.898;4.902;2022-09-12T05:38:42;15.80;99.90
20654;DHT22;21083;50.898;4.902;2022-09-12T05:41:10;15.80;99.90
20654;DHT22;21083;50.898;4.902;2022-09-12T05:43:39;15.80;99.90
20654;DHT22;21083;50.898;4.902;2022-09-12T05:46:08;15.70;99.90
20654;DHT22;21083;50.898;4.902;2022-09-12T05:48:37;15.70;99.90
20654;DHT22;21083;50.898;4.902;2022-09-12T05:51:06;15.70;99.90
20654;DHT22;21083;50.898;4.902;2022-09-12T05:53:36;15.70;99.90
20654;DHT22;21083;50.898;4.902;2022-09-12T05:56:05;15.70;99.90
20654;DHT22;21083;50.898;4.902;2022-09-12T05:58:33;15.70;99.90
20654;DHT22;21083;50.898;4.902;2022-09-12T06:01:01;15.70;99.90
20654;DHT22;21083;50.898;4.902;2022-09-12T06:03:30;15.70;99.90
20654;DHT22;21083;50.898;4.902;2022-09-12T06:06:00;15.70;99.90
20654;DHT22;21083;50.898;4.902;2022-09-12T06:08:27;15.80;99.90
20654;DHT22;21083;50.898;4.902;2022-09-12T06:10:59;15.80;99.90
20654;DHT22;21083;50.898;4.902;2022-09-12T06:13:26;15.80;99.90
20654;DHT22;21083;50.898;4.902;2022-09-12T06:15:53;15.80;99.90
20654;DHT22;21083;50.898;4.902;2022-09-12T06:18:20;15.80;99.90
20654;DHT22;21083;50.898;4.902;2022-09-12T06:20:47;15.80;99.90
20654;DHT22;21083;50.898;4.902;2022-09-12T06:23:14;15.80;99.90
20654;DHT22;21083;50.898;4.902;2022-09-12T06:25:45;15.80;99.90
20654;DHT22;21083;50.898;4.902;2022-09-12T06:28:15;15.90;99.90
20654;DHT22;21083;50.898;4.902;2022-09-12T06:30:42;15.80;99.90
20654;DHT22;21083;50.898;4.902;2022-09-12T06:33:09;15.80;99.90
20654;DHT22;21083;50.898;4.902;2022-09-12T06:35:36;15.90;99.90
20654;DHT22;21083;50.898;4.902;2022-09-12T06:38:03;15.90;99.90
20654;DHT22;21083;50.898;4.902;2022-09-12T06:40:31;15.90;99.90
20654;DHT22;21083;50.898;4.902;2022-09-12T06:42:57;15.90;99.90
20654;DHT22;21083;50.898;4.902;2022-09-12T06:45:26;15.90;99.90
20654;DHT22;21083;50.898;4.902;2022-09-12T06:47:54;15.90;99.90
20654;DHT22;21083;50.898;4.902;2022-09-12T06:50:21;16.00;99.90
20654;DHT22;21083;50.898;4.902;2022-09-12T06:52:48;16.00;99.90
20654;DHT22;21083;50.898;4.902;2022-09-12T06:55:16;16.00;99.90
20654;DHT22;21083;50.898;4.902;2022-09-12T06:57:43;16.10;99.90
20654;DHT22;21083;50.898;4.902;2022-09-12T07:00:11;16.10;99.90
20654;DHT22;21083;50.898;4.902;2022-09-12T07:02:39;16.10;99.90
20654;DHT22;21083;50.898;4.902;2022-09-12T07:05:07;16.20;99.90
20654;DHT22;21083;50.898;4.902;2022-09-12T07:07:35;16.20;99.90
20654;DHT22;21083;50.898;4.902;2022-09-12T07:10:03;16.30;99.90
20654;DHT22;21083;50.898;4.902;2022-09-12T07:12:31;16.30;99.90
20654;DHT22;21083;50.898;4.902;2022-09-12T07:14:58;16.30;99.90
20654;DHT22;21083;50.898;4.902;2022-09-12T07:17:25;16.50;99.90
20654;DHT22;21083;50.898;4.902;2022-09-12T07:19:53;16.50;99.90
20654;DHT22;21083;50.898;4.902;2022-09-12T07:22:20;16.60;99.90
20654;DHT22;21083;50.898;4.902;2022-09-12T07:24:47;16.60;99.90
20654;DHT22;21083;50.898;4.902;2022-09-12T07:27:15;16.70;99.90
20654;DHT22;21083;50.898;4.902;2022-09-12T07:29:41;16.70;99.90
20654;DHT22;21083;50.898;4.902;2022-09-12T07:32:08;16.80;99.90
20654;DHT22;21083;50.898;4.902;2022-09-12T07:34:36;16.90;99.90
20654;DHT22;21083;50.898;4.902;2022-09-12T07:37:04;16.90;99.90
20654;DHT22;21083;50.898;4.902;2022-09-12T07:39:31;17.00;99.90
20654;DHT22;21083;50.898;4.902;2022-09-12T07:41:58;16.90;99.90
20654;DHT22;21083;50.898;4.902;2022-09-12T07:44:26;17.10;99.90
20654;DHT22;21083;50.898;4.902;2022-09-12T07:46:53;17.10;99.90
20654;DHT22;21083;50.898;4.902;2022-09-12T07:49:20;17.30;99.90
20654;DHT22;21083;50.898;4.902;2022-09-12T07:51:47;17.30;99.90
20654;DHT22;21083;50.898;4.902;2022-09-12T07:54:15;17.40;99.90
20654;DHT22;21083;50.898;4.902;2022-09-12T07:56:42;17.50;99.90
20654;DHT22;21083;50.898;4.902;2022-09-12T07:59:10;17.50;99.90
20654;DHT22;21083;50.898;4.902;2022-09-12T08:01:38;17.60;99.90
20654;DHT22;21083;50.898;4.902;2022-09-12T08:04:06;17.70;99.90
20654;DHT22;21083;50.898;4.902;2022-09-12T08:06:33;17.70;99.90
20654;DHT22;21083;50.898;4.902;2022-09-12T08:09:02;17.90;99.90
20654;DHT22;21083;50.898;4.902;2022-09-12T08:11:30;17.90;99.90
20654;DHT22;21083;50.898;4.902;2022-09-12T08:13:57;18.10;99.90
20654;DHT22;21083;50.898;4.902;2022-09-12T08:16:28;18.30;99.90
20654;DHT22;21083;50.898;4.902;2022-09-12T08:18:55;18.40;99.90
20654;DHT22;21083;50.898;4.902;2022-09-12T08:21:24;18.40;99.90
20654;DHT22;21083;50.898;4.902;2022-09-12T08:23:52;18.50;99.90
20654;DHT22;21083;50.898;4.902;2022-09-12T08:26:20;18.70;99.90
20654;DHT22;21083;50.898;4.902;2022-09-12T08:28:48;18.90;99.90
20654;DHT22;21083;50.898;4.902;2022-09-12T08:31:16;19.00;99.90
20654;DHT22;21083;50.898;4.902;2022-09-12T08:33:44;19.10;99.90
20654;DHT22;21083;50.898;4.902;2022-09-12T08:36:12;19.20;99.90
20654;DHT22;21083;50.898;4.902;2022-09-12T08:38:42;19.30;99.90
20654;DHT22;21083;50.898;4.902;2022-09-12T08:41:14;19.30;99.90
20654;DHT22;21083;50.898;4.902;2022-09-12T08:43:56;19.40;99.90
20654;DHT22;21083;50.898;4.902;2022-09-12T08:46:30;19.50;99.90
20654;DHT22;21083;50.898;4.902;2022-09-12T08:48:59;19.70;99.90
20654;DHT22;21083;50.898;4.902;2022-09-12T08:51:31;19.80;99.90
20654;DHT22;21083;50.898;4.902;2022-09-12T08:54:00;19.70;99.90
20654;DHT22;21083;50.898;4.902;2022-09-12T08:56:31;19.90;99.90
20654;DHT22;21083;50.898;4.902;2022-09-12T08:59:02;19.90;99.90
20654;DHT22;21083;50.898;4.902;2022-09-12T09:01:31;19.90;99.90
20654;DHT22;21083;50.898;4.902;2022-09-12T09:04:15;20.10;99.90
20654;DHT22;21083;50.898;4.902;2022-09-12T09:07:14;20.20;99.90
20654;DHT22;21083;50.898;4.902;2022-09-12T09:09:54;20.40;99.90
20654;DHT22;21083;50.898;4.902;2022-09-12T09:12:35;20.50;99.90
20654;DHT22;21083;50.898;4.902;2022-09-12T09:15:21;20.80;99.90
20654;DHT22;21083;50.898;4.902;2022-09-12T09:17:54;21.00;99.90
20654;DHT22;21083;50.898;4.902;2022-09-12T09:20:28;21.20;99.90
20654;DHT22;21083;50.898;4.902;2022-09-12T09:22:59;21.40;99.90
20654;DHT22;21083;50.898;4.902;2022-09-12T09:25:43;21.50;99.90
20654;DHT22;21083;50.898;4.902;2022-09-12T09:28:16;21.60;99.90
20654;DHT22;21083;50.898;4.902;2022-09-12T09:30:46;21.80;99.90
20654;DHT22;21083;50.898;4.902;2022-09-12T09:33:19;21.90;99.90
20654;DHT22;21083;50.898;4.902;2022-09-12T09:35:50;22.10;99.90
20654;DHT22;21083;50.898;4.902;2022-09-12T09:38:24;22.20;99.90
20654;DHT22;21083;50.898;4.902;2022-09-12T09:41:02;22.30;99.90
20654;DHT22;21083;50.898;4.902;2022-09-12T09:43:32;22.50;99.90
20654;DHT22;21083;50.898;4.902;2022-09-12T09:46:01;22.70;99.90
20654;DHT22;21083;50.898;4.902;2022-09-12T09:48:30;22.80;99.90
20654;DHT22;21083;50.898;4.902;2022-09-12T09:50:58;23.00;99.90
20654;DHT22;21083;50.898;4.902;2022-09-12T09:53:35;23.30;99.90
20654;DHT22;21083;50.898;4.902;2022-09-12T09:56:10;23.60;99.90
20654;DHT22;21083;50.898;4.902;2022-09-12T09:58:38;23.90;99.90
20654;DHT22;21083;50.898;4.902;2022-09-12T10:01:13;23.90;99.90
20654;DHT22;21083;50.898;4.902;2022-09-12T10:03:47;24.10;99.90
20654;DHT22;21083;50.898;4.902;2022-09-12T10:06:35;24.20;99.90
20654;DHT22;21083;50.898;4.902;2022-09-12T10:09:06;24.30;99.90
20654;DHT22;21083;50.898;4.902;2022-09-12T10:11:42;24.30;99.90
20654;DHT22;21083;50.898;4.902;2022-09-12T10:14:30;24.50;99.90
20654;DHT22;21083;50.898;4.902;2022-09-12T10:17:02;24.80;99.90
20654;DHT22;21083;50.898;4.902;2022-09-12T10:19:35;24.70;99.90
20654;DHT22;21083;50.898;4.902;2022-09-12T10:22:03;25.00;99.90
20654;DHT22;21083;50.898;4.902;2022-09-12T10:24:33;25.30;99.90
20654;DHT22;21083;50.898;4.902;2022-09-12T10:27:13;25.40;99.90
20654;DHT22;21083;50.898;4.902;2022-09-12T10:29:43;25.60;99.90
20654;DHT22;21083;50.898;4.902;2022-09-12T10:32:20;25.70;99.90
20654;DHT22;21083;50.898;4.902;2022-09-12T10:34:52;25.70;99.90
20654;DHT22;21083;50.898;4.902;2022-09-12T10:37:23;25.90;99.90
20654;DHT22;21083;50.898;4.902;2022-09-12T10:39:54;26.20;99.90
20654;DHT22;21083;50.898;4.902;2022-09-12T10:42:44;26.20;99.90
20654;DHT22;21083;50.898;4.902;2022-09-12T10:45:26;26.50;99.90
20654;DHT22;21083;50.898;4.902;2022-09-12T10:47:57;26.60;99.90
20654;DHT22;21083;50.898;4.902;2022-09-12T10:50:30;26.50;99.90
20654;DHT22;21083;50.898;4.902;2022-09-12T10:53:19;26.70;99.90
20654;DHT22;21083;50.898;4.902;2022-09-12T10:56:11;26.60;99.90
20654;DHT22;21083;50.898;4.902;2022-09-12T10:58:58;26.60;99.90
20654;DHT22;21083;50.898;4.902;2022-09-12T11:01:37;26.40;99.90
20654;DHT22;21083;50.898;4.902;2022-09-12T11:04:30;26.40;99.90
20654;DHT22;21083;50.898;4.902;2022-09-12T11:07:16;26.50;99.90
20654;DHT22;21083;50.898;4.902;2022-09-12T11:09:52;26.70;99.90
20654;DHT22;21083;50.898;4.902;2022-09-12T11:12:28;27.00;99.90
20654;DHT22;21083;50.898;4.902;2022-09-12T11:15:07;27.30;99.90
20654;DHT22;21083;50.898;4.902;2022-09-12T11:17:43;27.40;99.90
20654;DHT22;21083;50.898;4.902;2022-09-12T11:20:34;27.70;99.90
20654;DHT22;21083;50.898;4.902;2022-09-12T11:26:26;27.70;99.90
20654;DHT22;21083;50.898;4.902;2022-09-12T11:29:06;27.60;99.90
20654;DHT22;21083;50.898;4.902;2022-09-12T11:31:51;27.30;99.90
20654;DHT22;21083;50.898;4.902;2022-09-12T11:34:27;27.40;99.90
20654;DHT22;21083;50.898;4.902;2022-09-12T11:37:11;27.70;99.90
20654;DHT22;21083;50.898;4.902;2022-09-12T11:39:42;27.40;99.90
20654;DHT22;21083;50.898;4.902;2022-09-12T11:42:15;27.70;99.90
20654;DHT22;21083;50.898;4.902;2022-09-12T11:44:46;27.90;99.90
20654;DHT22;21083;50.898;4.902;2022-09-12T11:47:14;27.80;99.90
20654;DHT22;21083;50.898;4.902;2022-09-12T11:49:45;27.70;99.90
20654;DHT22;21083;50.898;4.902;2022-09-12T11:52:16;27.90;99.90
20654;DHT22;21083;50.898;4.902;2022-09-12T11:54:47;28.00;99.90
20654;DHT22;21083;50.898;4.902;2022-09-12T11:57:17;28.30;99.90
20654;DHT22;21083;50.898;4.902;2022-09-12T11:59:48;28.80;99.90
20654;DHT22;21083;50.898;4.902;2022-09-12T12:02:24;29.00;99.90
20654;DHT22;21083;50.898;4.902;2022-09-12T12:05:14;29.20;99.90
20654;DHT22;21083;50.898;4.902;2022-09-12T12:07:51;29.20;99.90
20654;DHT22;21083;50.898;4.902;2022-09-12T12:10:30;29.00;99.90
20654;DHT22;21083;50.898;4.902;2022-09-12T12:12:59;29.50;99.90
20654;DHT22;21083;50.898;4.902;2022-09-12T12:15:27;29.50;99.90
20654;DHT22;21083;50.898;4.902;2022-09-12T12:18:07;28.90;99.90
20654;DHT22;21083;50.898;4.902;2022-09-12T12:20:40;29.10;99.90
20654;DHT22;21083;50.898;4.902;2022-09-12T12:23:22;29.50;99.90
20654;DHT22;21083;50.898;4.902;2022-09-12T12:25:53;29.90;99.90
20654;DHT22;21083;50.898;4.902;2022-09-12T12:28:57;30.00;99.90
20654;DHT22;21083;50.898;4.902;2022-09-12T12:31:24;30.30;99.90
20654;DHT22;21083;50.898;4.902;2022-09-12T12:34:03;30.40;99.90
20654;DHT22;21083;50.898;4.902;2022-09-12T12:36:35;30.80;99.90
20654;DHT22;21083;50.898;4.902;2022-09-12T12:45:59;31.70;99.90
20654;DHT22;21083;50.898;4.902;2022-09-12T12:51:37;31.50;99.90
20654;DHT22;21083;50.898;4.902;2022-09-12T12:54:26;31.50;99.90
20654;DHT22;21083;50.898;4.902;2022-09-12T12:59:48;31.80;99.90
20654;DHT22;21083;50.898;4.902;2022-09-12T13:02:22;31.90;99.90
20654;DHT22;21083;50.898;4.902;2022-09-12T13:04:49;32.10;99.90
20654;DHT22;21083;50.898;4.902;2022-09-12T13:07:25;32.20;99.90
20654;DHT22;21083;50.898;4.902;2022-09-12T13:09:53;32.20;99.90
20654;DHT22;21083;50.898;4.902;2022-09-12T13:12:23;32.40;99.90
20654;DHT22;21083;50.898;4.902;2022-09-12T13:14:54;32.80;99.90
20654;DHT22;21083;50.898;4.902;2022-09-12T13:17:31;33.10;99.90
20654;DHT22;21083;50.898;4.902;2022-09-12T13:20:15;33.00;99.90
20654;DHT22;21083;50.898;4.902;2022-09-12T13:22:46;32.60;99.90
20654;DHT22;21083;50.898;4.902;2022-09-12T13:25:23;32.50;99.90
20654;DHT22;21083;50.898;4.902;2022-09-12T13:28:04;32.40;99.90
20654;DHT22;21083;50.898;4.902;2022-09-12T13:30:33;32.10;99.90
20654;DHT22;21083;50.898;4.902;2022-09-12T13:33:16;32.10;99.90
20654;DHT22;21083;50.898;4.902;2022-09-12T13:41:54;32.20;99.90
20654;DHT22;21083;50.898;4.902;2022-09-12T13:44:27;32.50;99.90
20654;DHT22;21083;50.898;4.902;2022-09-12T13:46:58;32.70;99.90
20654;DHT22;21083;50.898;4.902;2022-09-12T13:49:32;32.90;99.90
20654;DHT22;21083;50.898;4.902;2022-09-12T13:52:02;33.30;99.90
20654;DHT22;21083;50.898;4.902;2022-09-12T13:54:30;33.30;99.90
20654;DHT22;21083;50.898;4.902;2022-09-12T13:56:58;33.00;99.90
20654;DHT22;21083;50.898;4.902;2022-09-12T13:59:26;33.00;99.90
20654;DHT22;21083;50.898;4.902;2022-09-12T14:01:53;33.20;99.90
20654;DHT22;21083;50.898;4.902;2022-09-12T14:04:21;33.40;99.90
20654;DHT22;21083;50.898;4.902;2022-09-12T14:07:13;33.30;99.90
20654;DHT22;21083;50.898;4.902;2022-09-12T14:09:43;33.40;99.90
20654;DHT22;21083;50.898;4.902;2022-09-12T14:12:14;33.70;99.90
20654;DHT22;21083;50.898;4.902;2022-09-12T14:14:48;33.80;99.90
20654;DHT22;21083;50.898;4.902;2022-09-12T14:17:17;33.90;99.90
20654;DHT22;21083;50.898;4.902;2022-09-12T14:19:46;33.70;99.90
20654;DHT22;21083;50.898;4.902;2022-09-12T14:22:15;33.40;99.90
20654;DHT22;21083;50.898;4.902;2022-09-12T14:24:44;33.50;99.90
20654;DHT22;21083;50.898;4.902;2022-09-12T14:27:16;33.10;99.90
20654;DHT22;21083;50.898;4.902;2022-09-12T14:29:44;33.40;99.90
20654;DHT22;21083;50.898;4.902;2022-09-12T14:32:20;33.20;99.90
20654;DHT22;21083;50.898;4.902;2022-09-12T14:35:03;33.30;99.90
20654;DHT22;21083;50.898;4.902;2022-09-12T14:37:31;33.60;99.90
20654;DHT22;21083;50.898;4.902;2022-09-12T14:39:58;33.60;99.90
20654;DHT22;21083;50.898;4.902;2022-09-12T14:42:29;33.50;99.90
20654;DHT22;21083;50.898;4.902;2022-09-12T14:45:01;33.60;99.90
20654;DHT22;21083;50.898;4.902;2022-09-12T14:47:35;33.60;99.90
20654;DHT22;21083;50.898;4.902;2022-09-12T14:50:14;33.60;99.90
20654;DHT22;21083;50.898;4.902;2022-09-12T14:52:43;33.60;99.90
20654;DHT22;21083;50.898;4.902;2022-09-12T14:55:22;33.80;99.90
20654;DHT22;21083;50.898;4.902;2022-09-12T14:58:08;34.30;99.90
20654;DHT22;21083;50.898;4.902;2022-09-12T15:00:55;34.80;99.90
20654;DHT22;21083;50.898;4.902;2022-09-12T15:03:25;34.80;99.90
20654;DHT22;21083;50.898;4.902;2022-09-12T15:05:53;34.80;99.90
20654;DHT22;21083;50.898;4.902;2022-09-12T15:08:21;34.90;99.90
20654;DHT22;21083;50.898;4.902;2022-09-12T15:10:48;34.90;99.90
20654;DHT22;21083;50.898;4.902;2022-09-12T15:13:20;35.20;99.90
20654;DHT22;21083;50.898;4.902;2022-09-12T15:15:49;35.10;99.90
20654;DHT22;21083;50.898;4.902;2022-09-12T15:18:18;35.50;99.80
20654;DHT22;21083;50.898;4.902;2022-09-12T15:20:47;35.00;99.60
20654;DHT22;21083;50.898;4.902;2022-09-12T15:23:18;34.90;99.90
20654;DHT22;21083;50.898;4.902;2022-09-12T15:25:47;34.70;99.90
20654;DHT22;21083;50.898;4.902;2022-09-12T15:28:17;34.80;99.90
20654;DHT22;21083;50.898;4.902;2022-09-12T15:30:45;35.00;99.90
20654;DHT22;21083;50.898;4.902;2022-09-12T15:33:14;35.30;99.90
20654;DHT22;21083;50.898;4.902;2022-09-12T15:35:41;34.90;97.80
20654;DHT22;21083;50.898;4.902;2022-09-12T15:38:08;34.90;99.00
20654;DHT22;21083;50.898;4.902;2022-09-12T15:40:34;35.10;99.90
20654;DHT22;21083;50.898;4.902;2022-09-12T15:43:03;35.60;99.90
20654;DHT22;21083;50.898;4.902;2022-09-12T15:45:31;35.70;97.50
20654;DHT22;21083;50.898;4.902;2022-09-12T15:47:59;35.60;99.40
20654;DHT22;21083;50.898;4.902;2022-09-12T15:50:27;35.80;98.60
20654;DHT22;21083;50.898;4.902;2022-09-12T15:52:54;36.00;99.20
20654;DHT22;21083;50.898;4.902;2022-09-12T15:55:23;36.50;97.20
20654;DHT22;21083;50.898;4.902;2022-09-12T15:57:50;36.60;96.20
20654;DHT22;21083;50.898;4.902;2022-09-12T16:00:19;36.80;97.60
20654;DHT22;21083;50.898;4.902;2022-09-12T16:02:47;36.40;95.40
20654;DHT22;21083;50.898;4.902;2022-09-12T16:05:17;36.10;96.80
20654;DHT22;21083;50.898;4.902;2022-09-12T16:07:44;35.90;97.00
20654;DHT22;21083;50.898;4.902;2022-09-12T16:10:14;36.30;97.20
20654;DHT22;21083;50.898;4.902;2022-09-12T16:12:41;36.70;96.80
20654;DHT22;21083;50.898;4.902;2022-09-12T16:15:12;37.30;95.10
20654;DHT22;21083;50.898;4.902;2022-09-12T16:17:40;37.60;96.20
20654;DHT22;21083;50.898;4.902;2022-09-12T16:20:08;37.90;94.70
20654;DHT22;21083;50.898;4.902;2022-09-12T16:22:35;37.80;95.20
20654;DHT22;21083;50.898;4.902;2022-09-12T16:25:03;37.40;94.40
20654;DHT22;21083;50.898;4.902;2022-09-12T16:27:31;37.00;96.10